createdAt,value
2018-04-29T00:02:21.872Z,13.10
2018-04-29T00:04:49.423Z,13.10
2018-04-29T00:07:16.989Z,13.00
2018-04-29T00:09:45.303Z,13.10
2018-04-29T00:12:12.869Z,13.10
2018-04-29T00:14:40.412Z,13.10
2018-04-29T00:17:07.982Z,13.20
2018-04-29T00:19:35.529Z,13.20
2018-04-29T00:22:03.094Z,13.20
2018-04-29T00:24:30.637Z,13.20
2018-04-29T00:26:58.204Z,13.20
2018-04-29T00:29:25.745Z,13.20
2018-04-29T00:31:54.077Z,13.40
2018-04-29T00:34:21.620Z,13.40
2018-04-29T00:36:49.186Z,13.20
2018-04-29T00:39:16.744Z,13.10
2018-04-29T00:41:44.312Z,13.10
2018-04-29T00:44:11.861Z,13.10
2018-04-29T00:46:39.425Z,13.10
2018-04-29T00:49:07.148Z,13.00
2018-04-29T00:51:47.516Z,12.90
2018-04-29T00:54:15.145Z,12.90
2018-04-29T00:56:43.480Z,13.00
2018-04-29T00:59:11.024Z,12.90
2018-04-29T01:01:38.589Z,13.00
2018-04-29T01:04:06.129Z,13.00
2018-04-29T01:06:33.696Z,13.00
2018-04-29T01:09:01.236Z,13.00
2018-04-29T01:11:28.804Z,12.90
2018-04-29T01:13:56.349Z,12.90
2018-04-29T01:16:23.915Z,12.90
2018-04-29T01:18:51.460Z,12.80
2018-04-29T01:21:19.793Z,12.60
2018-04-29T01:23:47.340Z,12.60
2018-04-29T01:26:14.909Z,12.70
2018-04-29T01:28:43.224Z,12.60
2018-04-29T01:31:10.800Z,12.60
2018-04-29T01:33:38.347Z,12.60
2018-04-29T01:36:06.679Z,12.40
2018-04-29T01:38:34.220Z,12.40
2018-04-29T01:41:01.791Z,12.40
2018-04-29T01:43:30.100Z,12.30
2018-04-29T01:45:57.645Z,12.30
2018-04-29T01:48:25.225Z,12.40
2018-04-29T01:50:53.535Z,12.30
2018-04-29T01:53:21.101Z,12.20
2018-04-29T01:55:48.662Z,12.30
2018-04-29T01:58:16.229Z,12.20
2018-04-29T02:00:43.772Z,12.20
2018-04-29T02:03:11.337Z,12.10
2018-04-29T02:05:38.878Z,12.10
2018-04-29T02:08:06.443Z,12.20
2018-04-29T02:10:33.989Z,12.10
2018-04-29T02:13:02.413Z,12.00
2018-04-29T02:15:30.104Z,12.00
2018-04-29T02:17:57.672Z,12.00
2018-04-29T02:20:26.196Z,12.10
2018-04-29T02:22:53.760Z,12.00
2018-04-29T02:25:21.304Z,12.10
2018-04-29T02:27:48.873Z,12.10
2018-04-29T02:30:16.413Z,12.00
2018-04-29T02:32:43.980Z,12.00
2018-04-29T02:35:11.515Z,12.00
2018-04-29T02:37:39.844Z,12.00
2018-04-29T02:40:07.391Z,12.00
2018-04-29T02:42:34.964Z,11.90
2018-04-29T02:45:02.518Z,11.70
2018-04-29T02:47:30.091Z,11.70
2018-04-29T02:49:57.641Z,11.70
2018-04-29T02:52:25.595Z,11.70
2018-04-29T02:54:53.137Z,11.70
2018-04-29T02:57:20.714Z,11.70
2018-04-29T02:59:48.262Z,11.70
2018-04-29T03:02:15.828Z,11.70
2018-04-29T03:04:43.374Z,11.60
2018-04-29T03:07:10.933Z,11.60
2018-04-29T03:09:38.512Z,11.60
2018-04-29T03:12:06.063Z,11.60
2018-04-29T03:14:33.624Z,11.60
2018-04-29T03:17:01.169Z,11.60
2018-04-29T03:19:28.744Z,11.60
2018-04-29T03:21:56.289Z,11.50
2018-04-29T03:24:23.852Z,11.50
2018-04-29T03:26:51.398Z,11.50
2018-04-29T03:29:18.965Z,11.40
2018-04-29T03:31:46.512Z,11.40
2018-04-29T03:34:14.085Z,11.30
2018-04-29T03:36:41.629Z,11.30
2018-04-29T03:39:09.200Z,11.20
2018-04-29T03:41:36.741Z,11.20
2018-04-29T03:44:04.303Z,11.20
2018-04-29T03:46:31.844Z,11.20
2018-04-29T03:48:59.416Z,11.30
2018-04-29T03:51:26.956Z,11.20
2018-04-29T03:53:55.288Z,11.10
2018-04-29T03:56:22.949Z,11.10
2018-04-29T03:59:02.393Z,11.00
2018-04-29T04:01:51.281Z,10.90
2018-04-29T04:04:09.248Z,10.90
2018-04-29T04:06:37.889Z,10.90
2018-04-29T04:09:05.452Z,10.80
2018-04-29T04:11:32.996Z,10.90
2018-04-29T04:14:00.565Z,10.90
2018-04-29T04:16:28.104Z,10.90
2018-04-29T04:18:55.667Z,10.80
2018-04-29T04:21:23.208Z,10.80
2018-04-29T04:23:50.852Z,10.90
2018-04-29T04:26:18.348Z,10.90
2018-04-29T04:28:45.917Z,10.90
2018-04-29T04:31:13.460Z,10.80
2018-04-29T04:33:41.029Z,10.80
2018-04-29T04:36:08.569Z,10.80
2018-04-29T04:38:36.151Z,10.90
2018-04-29T04:41:03.695Z,11.00
2018-04-29T04:43:31.268Z,11.00
2018-04-29T04:45:58.808Z,11.20
2018-04-29T04:48:26.605Z,11.10
2018-04-29T04:50:55.124Z,11.00
2018-04-29T04:53:22.672Z,11.00
2018-04-29T04:55:50.243Z,11.00
2018-04-29T04:58:17.785Z,11.00
2018-04-29T05:00:45.349Z,11.00
2018-04-29T05:03:12.897Z,11.00
2018-04-29T05:05:40.470Z,11.00
2018-04-29T05:08:08.012Z,11.10
2018-04-29T05:10:35.576Z,11.20
2018-04-29T05:13:03.170Z,11.20
2018-04-29T05:15:30.741Z,11.20
2018-04-29T05:17:58.285Z,11.30
2018-04-29T05:20:25.852Z,11.40
2018-04-29T05:22:53.400Z,11.50
2018-04-29T05:25:20.976Z,11.60
2018-04-29T05:27:48.528Z,11.60
2018-04-29T05:30:16.148Z,11.60
2018-04-29T05:32:43.701Z,11.60
2018-04-29T05:35:11.267Z,11.70
2018-04-29T05:37:38.821Z,11.70
2018-04-29T05:40:06.400Z,11.80
2018-04-29T05:42:33.948Z,12.00
2018-04-29T05:45:01.528Z,12.10
2018-04-29T05:47:29.074Z,12.30
2018-04-29T05:49:56.682Z,12.40
2018-04-29T05:52:24.216Z,12.50
2018-04-29T05:54:51.792Z,12.70
2018-04-29T05:57:19.348Z,12.70
2018-04-29T05:59:46.931Z,12.80
2018-04-29T06:02:15.246Z,13.00
2018-04-29T06:04:42.812Z,12.90
2018-04-29T06:07:10.363Z,13.10
2018-04-29T06:09:37.944Z,13.20
2018-04-29T06:12:05.501Z,13.20
2018-04-29T06:14:33.044Z,13.20
2018-04-29T06:17:02.277Z,13.20
2018-04-29T06:19:29.827Z,13.30
2018-04-29T06:21:57.400Z,13.40
2018-04-29T06:24:24.944Z,13.30
2018-04-29T06:26:52.521Z,13.30
2018-04-29T06:29:20.077Z,13.30
2018-04-29T06:31:48.621Z,13.30
2018-04-29T06:34:16.712Z,13.30
2018-04-29T06:36:45.053Z,13.40
2018-04-29T06:39:12.602Z,13.40
2018-04-29T06:41:40.170Z,13.50
2018-04-29T06:44:07.716Z,13.50
2018-04-29T06:46:35.285Z,13.60
2018-04-29T06:49:02.832Z,13.80
2018-04-29T06:51:30.400Z,14.10
2018-04-29T06:53:57.949Z,14.20
2018-04-29T06:56:25.525Z,14.30
2018-04-29T06:58:53.072Z,14.50
2018-04-29T07:01:20.647Z,14.50
2018-04-29T07:03:48.252Z,14.90
2018-04-29T07:06:15.828Z,15.10
2018-04-29T07:08:44.142Z,15.90
2018-04-29T07:11:11.716Z,15.80
2018-04-29T07:13:39.263Z,16.20
2018-04-29T07:16:06.834Z,16.30
2018-04-29T07:18:34.384Z,16.30
2018-04-29T07:21:01.951Z,16.50
2018-04-29T07:23:29.497Z,16.90
2018-04-29T07:25:57.067Z,17.50
2018-04-29T07:28:24.896Z,18.10
2018-04-29T07:30:52.470Z,18.80
2018-04-29T07:33:20.139Z,19.40
2018-04-29T07:35:47.711Z,20.00
2018-04-29T07:38:15.253Z,20.60
2018-04-29T07:40:42.829Z,21.20
2018-04-29T07:43:10.373Z,21.80
2018-04-29T07:45:37.957Z,22.20
2018-04-29T07:48:05.505Z,22.60
2018-04-29T07:50:33.048Z,23.10
2018-04-29T07:53:00.612Z,23.30
2018-04-29T07:55:28.153Z,23.60
2018-04-29T07:57:55.725Z,23.90
2018-04-29T08:00:23.284Z,24.50
2018-04-29T08:02:50.861Z,24.70
2018-04-29T08:05:18.409Z,25.20
2018-04-29T08:07:45.972Z,25.60
2018-04-29T08:10:13.785Z,26.00
2018-04-29T08:12:42.120Z,26.70
2018-04-29T08:15:09.671Z,26.60
2018-04-29T08:17:37.240Z,27.00
2018-04-29T08:20:05.556Z,28.00
2018-04-29T08:22:33.133Z,28.00
2018-04-29T08:25:00.684Z,28.20
2018-04-29T08:27:29.074Z,28.90
2018-04-29T08:29:56.587Z,28.90
2018-04-29T08:32:24.161Z,29.20
2018-04-29T08:34:51.704Z,29.10
2018-04-29T08:37:19.272Z,29.30
2018-04-29T08:39:46.815Z,29.90
2018-04-29T08:42:14.389Z,30.10
2018-04-29T08:44:41.932Z,30.40
2018-04-29T08:47:09.496Z,30.80
2018-04-29T08:49:37.037Z,31.10
2018-04-29T08:52:04.783Z,31.30
2018-04-29T08:54:32.369Z,31.50
2018-04-29T08:57:00.106Z,31.90
2018-04-29T08:59:27.654Z,31.80
2018-04-29T09:01:55.229Z,32.20
2018-04-29T09:04:22.769Z,32.20
2018-04-29T09:06:50.336Z,32.90
2018-04-29T09:09:17.884Z,33.00
2018-04-29T09:11:45.452Z,33.10
2018-04-29T09:14:12.997Z,33.20
2018-04-29T09:16:40.589Z,33.30
2018-04-29T09:19:08.137Z,33.80
2018-04-29T09:21:35.704Z,34.00
2018-04-29T09:24:03.276Z,34.10
2018-04-29T09:26:30.825Z,34.10
2018-04-29T09:28:58.395Z,33.70
2018-04-29T09:31:25.949Z,34.30
2018-04-29T09:33:53.524Z,34.30
2018-04-29T09:36:21.072Z,34.50
2018-04-29T09:38:48.649Z,34.90
2018-04-29T09:41:16.912Z,35.00
2018-04-29T09:43:44.566Z,35.30
2018-04-29T09:46:12.890Z,35.30
2018-04-29T09:48:40.484Z,35.30
2018-04-29T09:51:08.026Z,35.40
2018-04-29T09:53:35.596Z,35.90
2018-04-29T09:56:03.149Z,36.20
2018-04-29T09:58:30.712Z,36.00
2018-04-29T10:00:58.330Z,36.20
2018-04-29T10:03:26.061Z,36.00
2018-04-29T10:05:53.605Z,36.00
2018-04-29T10:08:21.185Z,36.30
2018-04-29T10:10:49.829Z,35.90
2018-04-29T10:13:17.441Z,36.10
2018-04-29T10:15:45.028Z,36.30
2018-04-29T10:18:12.603Z,36.30
2018-04-29T10:20:40.147Z,36.50
2018-04-29T10:23:07.713Z,36.80
2018-04-29T10:25:35.440Z,36.40
2018-04-29T10:28:03.021Z,36.20
2018-04-29T10:30:31.337Z,35.50
2018-04-29T10:32:58.977Z,35.40
2018-04-29T10:35:32.212Z,35.00
2018-04-29T10:37:59.818Z,34.60
2018-04-29T10:40:27.372Z,34.40
2018-04-29T10:42:54.949Z,33.90
2018-04-29T10:45:22.489Z,33.60
2018-04-29T10:47:52.355Z,33.20
2018-04-29T10:50:20.281Z,33.00
2018-04-29T10:52:48.802Z,32.50
2018-04-29T10:55:16.347Z,32.40
2018-04-29T10:57:43.910Z,32.00
2018-04-29T11:00:11.461Z,31.60
2018-04-29T11:02:39.028Z,31.50
2018-04-29T11:05:10.016Z,31.20
2018-04-29T11:07:41.353Z,30.90
2018-04-29T11:10:12.113Z,30.90
2018-04-29T11:12:41.732Z,30.90
2018-04-29T11:15:12.714Z,30.60
2018-04-29T11:17:40.261Z,30.40
2018-04-29T11:20:07.832Z,30.10
2018-04-29T11:22:35.383Z,30.10
2018-04-29T11:25:02.970Z,29.90
2018-04-29T11:27:31.277Z,29.70
2018-04-29T11:29:58.841Z,29.70
2018-04-29T11:32:26.393Z,29.50
2018-04-29T11:34:53.957Z,29.40
2018-04-29T11:37:21.504Z,29.10
2018-04-29T11:39:49.301Z,29.00
2018-04-29T11:42:16.845Z,29.00
2018-04-29T11:44:44.410Z,28.90
2018-04-29T11:47:11.979Z,28.80
2018-04-29T11:49:39.560Z,28.70
2018-04-29T11:52:07.108Z,28.60
2018-04-29T11:54:34.677Z,28.50
2018-04-29T11:57:02.232Z,28.50
2018-04-29T11:59:29.808Z,28.40
2018-04-29T12:01:57.450Z,27.90
2018-04-29T12:04:25.723Z,28.10
2018-04-29T12:06:53.288Z,28.10
2018-04-29T12:09:20.860Z,28.20
2018-04-29T12:11:48.407Z,28.10
2018-04-29T12:14:15.977Z,28.00
2018-04-29T12:16:43.528Z,28.00
2018-04-29T12:19:11.529Z,28.10
2018-04-29T12:21:39.094Z,28.00
2018-04-29T12:24:06.672Z,28.00
2018-04-29T12:26:34.216Z,28.00
2018-04-29T12:29:01.789Z,28.00
2018-04-29T12:31:29.329Z,28.00
2018-04-29T12:33:56.905Z,27.90
2018-04-29T12:36:24.452Z,27.90
2018-04-29T12:38:52.060Z,27.90
2018-04-29T12:41:19.600Z,28.00
2018-04-29T12:43:47.144Z,28.00
2018-04-29T12:46:14.712Z,28.00
2018-04-29T12:48:42.255Z,28.00
2018-04-29T12:51:09.859Z,28.10
2018-04-29T12:53:37.408Z,28.10
2018-04-29T12:56:04.988Z,28.20
2018-04-29T12:58:32.536Z,28.20
2018-04-29T13:01:00.105Z,28.10
2018-04-29T13:03:27.653Z,28.20
2018-04-29T13:05:55.229Z,28.20
2018-04-29T13:08:23.649Z,28.20
2018-04-29T13:10:51.220Z,28.20
2018-04-29T13:13:18.773Z,28.30
2018-04-29T13:15:46.337Z,28.30
2018-04-29T13:18:13.878Z,28.30
2018-04-29T13:20:41.450Z,28.30
2018-04-29T13:23:08.991Z,28.20
2018-04-29T13:25:36.562Z,28.20
2018-04-29T13:28:04.104Z,28.30
2018-04-29T13:30:31.668Z,28.20
2018-04-29T13:32:59.236Z,28.20
2018-04-29T13:35:26.809Z,28.10
2018-04-29T13:37:54.349Z,28.10
2018-04-29T13:40:21.920Z,28.20
2018-04-29T13:42:49.466Z,28.20
2018-04-29T13:45:17.050Z,28.30
2018-04-29T13:47:44.593Z,28.20
2018-04-29T13:50:12.161Z,28.20
2018-04-29T13:52:40.104Z,28.30
2018-04-29T13:55:07.671Z,28.30
2018-04-29T13:57:35.232Z,28.30
2018-04-29T14:00:02.813Z,28.30
2018-04-29T14:02:30.384Z,28.30
2018-04-29T14:04:57.948Z,28.30
2018-04-29T14:07:25.488Z,28.30
2018-04-29T14:09:53.835Z,28.40
2018-04-29T14:12:21.384Z,28.30
2018-04-29T14:14:48.935Z,28.20
2018-04-29T14:17:16.506Z,28.10
2018-04-29T14:19:44.044Z,28.20
2018-04-29T14:22:11.641Z,28.20
2018-04-29T14:24:39.395Z,28.20
2018-04-29T14:27:06.961Z,28.20
2018-04-29T14:29:34.503Z,28.30
2018-04-29T14:32:02.082Z,28.30
2018-04-29T14:34:29.645Z,28.30
2018-04-29T14:36:57.214Z,28.20
2018-04-29T14:39:24.756Z,28.20
2018-04-29T14:41:52.324Z,28.10
2018-04-29T14:44:19.871Z,28.20
2018-04-29T14:46:47.439Z,28.30
2018-04-29T14:49:14.993Z,28.20
2018-04-29T14:51:42.560Z,28.20
2018-04-29T14:54:11.337Z,28.10
2018-04-29T14:56:38.905Z,28.10
2018-04-29T14:59:06.453Z,28.10
2018-04-29T15:01:34.061Z,28.00
2018-04-29T15:04:01.609Z,28.00
2018-04-29T15:06:29.180Z,28.00
2018-04-29T15:08:56.731Z,28.10
2018-04-29T15:11:24.307Z,28.10
2018-04-29T15:13:51.856Z,28.10
2018-04-29T15:16:19.422Z,28.10
2018-04-29T15:18:59.627Z,28.10
2018-04-29T15:21:27.197Z,28.10
2018-04-29T15:23:54.748Z,28.10
2018-04-29T15:26:22.313Z,28.20
2018-04-29T15:28:49.865Z,28.10
2018-04-29T15:31:17.492Z,28.20
2018-04-29T15:33:45.041Z,28.10
2018-04-29T15:36:13.373Z,28.20
2018-04-29T15:38:40.933Z,28.10
2018-04-29T15:41:08.504Z,28.10
2018-04-29T15:43:36.048Z,28.00
2018-04-29T15:46:03.660Z,28.00
2018-04-29T15:48:31.976Z,28.00
2018-04-29T15:50:59.540Z,28.00
2018-04-29T15:53:27.871Z,28.10
2018-04-29T15:55:55.423Z,28.10
2018-04-29T15:58:22.988Z,28.10
2018-04-29T16:00:51.296Z,28.00
2018-04-29T16:03:18.860Z,28.00
2018-04-29T16:05:46.408Z,28.00
2018-04-29T16:08:14.020Z,28.00
2018-04-29T16:10:41.569Z,28.00
2018-04-29T16:13:09.168Z,27.90
2018-04-29T16:15:36.718Z,27.80
2018-04-29T16:18:05.057Z,27.80
2018-04-29T16:20:32.616Z,27.80
2018-04-29T16:23:00.201Z,27.80
2018-04-29T16:25:27.776Z,27.70
2018-04-29T16:27:55.340Z,27.70
2018-04-29T16:30:22.888Z,27.70
2018-04-29T16:32:50.456Z,27.70
2018-04-29T16:35:18.026Z,27.60
2018-04-29T16:37:46.044Z,27.60
2018-04-29T16:40:13.598Z,27.50
2018-04-29T16:42:41.169Z,27.50
2018-04-29T16:45:08.780Z,27.40
2018-04-29T16:47:37.085Z,27.40
2018-04-29T16:50:04.629Z,27.40
2018-04-29T16:52:32.213Z,27.40
2018-04-29T16:54:59.765Z,27.30
2018-04-29T16:57:27.349Z,27.20
2018-04-29T16:59:54.924Z,27.10
2018-04-29T17:02:23.268Z,27.10
2018-04-29T17:04:50.817Z,27.10
2018-04-29T17:07:18.385Z,27.00
2018-04-29T17:09:45.993Z,26.90
2018-04-29T17:12:13.558Z,26.70
2018-04-29T17:14:41.441Z,26.70
2018-04-29T17:17:09.092Z,26.50
2018-04-29T17:19:36.577Z,26.40
2018-04-29T17:22:04.148Z,26.20
2018-04-29T17:24:31.697Z,26.00
2018-04-29T17:26:59.268Z,26.00
2018-04-29T17:29:26.874Z,25.90
2018-04-29T17:31:54.410Z,25.80
2018-04-29T17:34:22.788Z,25.30
2018-04-29T17:36:50.340Z,25.30
2018-04-29T17:39:17.920Z,25.40
2018-04-29T17:41:45.469Z,25.30
2018-04-29T17:44:13.089Z,25.00
2018-04-29T17:46:40.989Z,25.10
2018-04-29T17:49:08.556Z,24.70
2018-04-29T17:51:36.124Z,24.90
2018-04-29T17:54:03.701Z,24.90
2018-04-29T17:56:31.302Z,24.80
2018-04-29T17:58:58.880Z,24.60
2018-04-29T18:01:27.289Z,24.30
2018-04-29T18:03:54.805Z,24.30
2018-04-29T18:06:22.357Z,24.30
2018-04-29T18:08:49.932Z,24.30
2018-04-29T18:11:17.481Z,24.30
2018-04-29T18:13:45.057Z,24.20
2018-04-29T18:16:13.395Z,24.10
2018-04-29T18:18:40.968Z,24.10
2018-04-29T18:21:08.564Z,23.90
2018-04-29T18:23:36.135Z,23.90
2018-04-29T18:26:03.686Z,23.80
2018-04-29T18:28:31.320Z,23.60
2018-04-29T18:31:00.208Z,23.50
2018-04-29T18:33:29.236Z,23.50
2018-04-29T18:35:56.851Z,23.50
2018-04-29T18:38:24.417Z,23.30
2018-04-29T18:40:51.965Z,23.30
2018-04-29T18:43:19.541Z,23.10
2018-04-29T18:45:48.716Z,23.00
2018-04-29T18:48:16.396Z,23.00
2018-04-29T18:50:44.485Z,22.80
2018-04-29T18:53:12.056Z,22.80
2018-04-29T18:55:39.596Z,22.60
2018-04-29T18:58:07.176Z,22.50
2018-04-29T19:00:34.720Z,22.40
2018-04-29T19:03:03.315Z,22.50
2018-04-29T19:05:52.850Z,22.40
2018-04-29T19:08:20.801Z,22.50
2018-04-29T19:10:48.741Z,22.40
2018-04-29T19:13:16.373Z,22.40
2018-04-29T19:15:44.183Z,22.40
2018-04-29T19:18:12.659Z,22.50
2018-04-29T19:20:40.340Z,22.50
2018-04-29T19:23:08.683Z,22.60
2018-04-29T19:25:36.260Z,22.60
2018-04-29T19:28:03.880Z,22.60
2018-04-29T19:30:31.681Z,22.60
2018-04-29T19:32:59.497Z,22.60
2018-04-29T19:35:27.445Z,22.50
2018-04-29T19:37:55.449Z,22.60
2018-04-29T19:40:23.580Z,22.40
2018-04-29T19:42:51.678Z,22.40
2018-04-29T19:45:20.827Z,22.30
2018-04-29T19:47:48.728Z,22.20
2018-04-29T19:50:16.585Z,22.40
2018-04-29T19:52:44.659Z,22.40
2018-04-29T19:55:13.126Z,22.40
2018-04-29T19:57:41.095Z,22.10
2018-04-29T20:00:09.721Z,21.90
2018-04-29T20:02:37.879Z,21.90
2018-04-29T20:05:05.744Z,21.90
2018-04-29T20:07:35.084Z,21.70
2018-04-29T20:10:03.742Z,21.70
2018-04-29T20:12:31.416Z,21.70
2018-04-29T20:14:58.988Z,21.70
2018-04-29T20:17:26.784Z,21.70
2018-04-29T20:19:54.672Z,21.60
2018-04-29T20:22:22.734Z,21.70
2018-04-29T20:24:50.326Z,21.60
2018-04-29T20:27:18.241Z,21.40
2018-04-29T20:29:46.919Z,21.30
2018-04-29T20:32:21.220Z,21.30
2018-04-29T20:34:48.878Z,21.30
2018-04-29T20:37:16.555Z,21.10
2018-04-29T20:39:44.264Z,21.10
2018-04-29T20:42:12.619Z,21.10
2018-04-29T20:44:40.239Z,21.00
2018-04-29T20:47:08.128Z,21.00
2018-04-29T20:49:35.776Z,20.90
2018-04-29T20:52:03.688Z,20.90
2018-04-29T20:54:31.800Z,20.70
2018-04-29T20:56:59.787Z,20.60
2018-04-29T20:59:27.513Z,20.40
2018-04-29T21:01:55.151Z,20.40
2018-04-29T21:04:22.785Z,20.50
2018-04-29T21:06:50.432Z,20.40
2018-04-29T21:09:18.429Z,20.30
2018-04-29T21:11:46.317Z,20.10
2018-04-29T21:14:14.153Z,20.00
2018-04-29T21:16:41.720Z,20.00
2018-04-29T21:19:09.261Z,20.00
2018-04-29T21:21:36.832Z,19.90
2018-04-29T21:24:04.376Z,19.80
2018-04-29T21:26:31.944Z,19.60
2018-04-29T21:29:00.257Z,19.40
2018-04-29T21:31:27.828Z,19.40
2018-04-29T21:33:55.371Z,19.50
2018-04-29T21:36:23.708Z,19.40
2018-04-29T21:38:51.704Z,19.40
2018-04-29T21:41:19.274Z,19.30
2018-04-29T21:43:47.583Z,19.30
2018-04-29T21:46:15.149Z,19.30
2018-04-29T21:48:42.687Z,19.20
2018-04-29T21:51:10.275Z,19.20
2018-04-29T21:53:37.824Z,19.10
2018-04-29T21:56:05.398Z,19.10
2018-04-29T21:58:32.953Z,19.10
2018-04-29T22:01:00.522Z,19.00
2018-04-29T22:03:28.066Z,19.00
2018-04-29T22:05:55.643Z,19.10
2018-04-29T22:08:23.193Z,19.10
2018-04-29T22:10:50.764Z,19.20
2018-04-29T22:13:18.308Z,19.30
2018-04-29T22:15:45.878Z,19.50
2018-04-29T22:18:13.425Z,19.40
2018-04-29T22:20:40.997Z,19.40
2018-04-29T22:23:08.540Z,19.40
2018-04-29T22:25:36.113Z,19.30
2018-04-29T22:28:03.663Z,19.30
2018-04-29T22:30:31.237Z,19.50
2018-04-29T22:32:58.787Z,19.50
2018-04-29T22:35:27.120Z,19.40
2018-04-29T22:37:54.687Z,19.30
2018-04-29T22:40:22.259Z,19.30
2018-04-29T22:42:49.832Z,19.20
2018-04-29T22:45:18.141Z,19.20
2018-04-29T22:47:45.713Z,19.10
2018-04-29T22:50:13.488Z,19.10
2018-04-29T22:52:41.061Z,19.00
2018-04-29T22:55:08.609Z,19.00
2018-04-29T22:57:36.173Z,19.00
2018-04-29T23:00:03.715Z,19.00
2018-04-29T23:02:32.048Z,19.00
2018-04-29T23:04:59.597Z,19.00
2018-04-29T23:07:27.348Z,18.90
2018-04-29T23:09:54.889Z,19.00
2018-04-29T23:12:22.456Z,18.90
2018-04-29T23:14:50.001Z,18.90
2018-04-29T23:17:17.569Z,18.80
2018-04-29T23:19:45.423Z,18.80
2018-04-29T23:22:12.984Z,18.70
2018-04-29T23:24:40.524Z,18.50
2018-04-29T23:27:08.101Z,18.50
2018-04-29T23:29:35.664Z,18.60
2018-04-29T23:32:03.227Z,18.50
2018-04-29T23:34:30.774Z,18.40
2018-04-29T23:36:58.339Z,18.40
2018-04-29T23:39:25.879Z,18.40
2018-04-29T23:41:54.213Z,18.30
2018-04-29T23:44:21.758Z,18.30
2018-04-29T23:46:49.320Z,18.30
2018-04-29T23:49:16.866Z,18.20
2018-04-29T23:51:44.504Z,18.20
2018-04-29T23:54:14.971Z,18.10
2018-04-29T23:56:42.537Z,18.00
2018-04-29T23:59:10.253Z,17.90
